sensor_id;sensor_type;location;lat;lon;timestamp;P1;durP1;ratioP1;P2;durP2;ratioP2
7108;SDS011;29079;41.930;25.558;2024-01-15T00:00:06;92.95;;;44.00;;
7108;SDS011;29079;41.930;25.558;2024-01-15T00:02:40;90.70;;;45.75;;
7108;SDS011;29079;41.930;25.558;2024-01-15T00:05:13;94.90;;;45.30;;
7108;SDS011;29079;41.930;25.558;2024-01-15T00:07:46;107.03;;;50.40;;
7108;SDS011;29079;41.930;25.558;2024-01-15T00:10:19;112.73;;;47.63;;
7108;SDS011;29079;41.930;25.558;2024-01-15T00:12:52;106.75;;;50.05;;
7108;SDS011;29079;41.930;25.558;2024-01-15T00:15:26;96.28;;;47.97;;
7108;SDS011;29079;41.930;25.558;2024-01-15T00:18:00;105.30;;;47.85;;
7108;SDS011;29079;41.930;25.558;2024-01-15T00:20:33;90.85;;;43.70;;
7108;SDS011;29079;41.930;25.558;2024-01-15T00:23:06;92.28;;;41.35;;
7108;SDS011;29079;41.930;25.558;2024-01-15T00:25:40;80.65;;;41.10;;
7108;SDS011;29079;41.930;25.558;2024-01-15T00:28:13;82.20;;;34.92;;
7108;SDS011;29079;41.930;25.558;2024-01-15T00:30:48;67.70;;;32.47;;
7108;SDS011;29079;41.930;25.558;2024-01-15T00:33:21;65.88;;;32.30;;
7108;SDS011;29079;41.930;25.558;2024-01-15T00:35:54;70.90;;;33.33;;
7108;SDS011;29079;41.930;25.558;2024-01-15T00:38:27;66.47;;;30.55;;
7108;SDS011;29079;41.930;25.558;2024-01-15T00:41:00;58.40;;;30.98;;
7108;SDS011;29079;41.930;25.558;2024-01-15T00:43:34;68.78;;;29.52;;
7108;SDS011;29079;41.930;25.558;2024-01-15T00:46:08;58.30;;;28.98;;
7108;SDS011;29079;41.930;25.558;2024-01-15T00:48:41;69.28;;;32.28;;
7108;SDS011;29079;41.930;25.558;2024-01-15T00:51:14;71.28;;;35.08;;
7108;SDS011;29079;41.930;25.558;2024-01-15T00:53:47;100.28;;;44.70;;
7108;SDS011;29079;41.930;25.558;2024-01-15T00:56:20;124.82;;;56.15;;
7108;SDS011;29079;41.930;25.558;2024-01-15T00:58:53;132.60;;;59.67;;
7108;SDS011;29079;41.930;25.558;2024-01-15T01:01:27;115.18;;;53.83;;
7108;SDS011;29079;41.930;25.558;2024-01-15T01:04:01;99.47;;;50.97;;
7108;SDS011;29079;41.930;25.558;2024-01-15T01:06:34;105.45;;;48.38;;
7108;SDS011;29079;41.930;25.558;2024-01-15T01:09:07;102.38;;;46.22;;
7108;SDS011;29079;41.930;25.558;2024-01-15T01:11:40;96.50;;;44.83;;
7108;SDS011;29079;41.930;25.558;2024-01-15T01:14:13;106.57;;;46.08;;
7108;SDS011;29079;41.930;25.558;2024-01-15T01:16:48;88.88;;;43.25;;
7108;SDS011;29079;41.930;25.558;2024-01-15T01:19:21;97.78;;;46.67;;
7108;SDS011;29079;41.930;25.558;2024-01-15T01:21:54;97.10;;;46.25;;
7108;SDS011;29079;41.930;25.558;2024-01-15T01:24:27;92.88;;;44.42;;
7108;SDS011;29079;41.930;25.558;2024-01-15T01:27:00;96.38;;;48.17;;
7108;SDS011;29079;41.930;25.558;2024-01-15T01:29:34;91.80;;;48.97;;
7108;SDS011;29079;41.930;25.558;2024-01-15T01:32:09;93.72;;;44.78;;
7108;SDS011;29079;41.930;25.558;2024-01-15T01:34:42;93.97;;;45.67;;
7108;SDS011;29079;41.930;25.558;2024-01-15T01:37:15;107.38;;;44.28;;
7108;SDS011;29079;41.930;25.558;2024-01-15T01:39:49;91.00;;;43.65;;
7108;SDS011;29079;41.930;25.558;2024-01-15T01:42:22;98.20;;;43.45;;
7108;SDS011;29079;41.930;25.558;2024-01-15T01:44:55;92.13;;;45.45;;
7108;SDS011;29079;41.930;25.558;2024-01-15T01:47:29;114.25;;;49.47;;
7108;SDS011;29079;41.930;25.558;2024-01-15T01:50:02;103.03;;;47.17;;
7108;SDS011;29079;41.930;25.558;2024-01-15T01:52:36;103.82;;;47.53;;
7108;SDS011;29079;41.930;25.558;2024-01-15T01:55:09;107.53;;;50.20;;
7108;SDS011;29079;41.930;25.558;2024-01-15T01:57:42;92.57;;;46.50;;
7108;SDS011;29079;41.930;25.558;2024-01-15T02:00:16;95.00;;;44.58;;
7108;SDS011;29079;41.930;25.558;2024-01-15T02:02:51;97.57;;;44.13;;
7108;SDS011;29079;41.930;25.558;2024-01-15T02:05:24;101.03;;;42.20;;
7108;SDS011;29079;41.930;25.558;2024-01-15T02:07:57;78.53;;;38.42;;
7108;SDS011;29079;41.930;25.558;2024-01-15T02:10:30;78.65;;;35.47;;
7108;SDS011;29079;41.930;25.558;2024-01-15T02:13:03;79.90;;;33.78;;
7108;SDS011;29079;41.930;25.558;2024-01-15T02:15:36;70.70;;;33.42;;
7108;SDS011;29079;41.930;25.558;2024-01-15T02:18:11;76.80;;;34.40;;
7108;SDS011;29079;41.930;25.558;2024-01-15T02:20:44;74.90;;;35.03;;
7108;SDS011;29079;41.930;25.558;2024-01-15T02:23:18;89.22;;;37.45;;
7108;SDS011;29079;41.930;25.558;2024-01-15T02:25:51;87.45;;;37.17;;
7108;SDS011;29079;41.930;25.558;2024-01-15T02:28:24;89.80;;;39.75;;
7108;SDS011;29079;41.930;25.558;2024-01-15T02:33:31;77.13;;;35.80;;
7108;SDS011;29079;41.930;25.558;2024-01-15T02:36:04;72.93;;;34.30;;
7108;SDS011;29079;41.930;25.558;2024-01-15T02:41:11;67.03;;;31.60;;
7108;SDS011;29079;41.930;25.558;2024-01-15T02:43:45;69.75;;;30.33;;
7108;SDS011;29079;41.930;25.558;2024-01-15T02:46:18;69.80;;;31.05;;
7108;SDS011;29079;41.930;25.558;2024-01-15T02:48:51;68.35;;;31.58;;
7108;SDS011;29079;41.930;25.558;2024-01-15T02:51:24;69.40;;;31.50;;
7108;SDS011;29079;41.930;25.558;2024-01-15T02:53:59;72.07;;;33.78;;
7108;SDS011;29079;41.930;25.558;2024-01-15T02:56:32;63.45;;;30.73;;
7108;SDS011;29079;41.930;25.558;2024-01-15T02:59:05;75.60;;;33.50;;
7108;SDS011;29079;41.930;25.558;2024-01-15T03:01:37;74.93;;;32.65;;
7108;SDS011;29079;41.930;25.558;2024-01-15T03:04:10;64.32;;;31.98;;
7108;SDS011;29079;41.930;25.558;2024-01-15T03:06:44;72.28;;;34.03;;
7108;SDS011;29079;41.930;25.558;2024-01-15T03:09:18;75.38;;;32.88;;
7108;SDS011;29079;41.930;25.558;2024-01-15T03:11:51;73.55;;;32.63;;
7108;SDS011;29079;41.930;25.558;2024-01-15T03:14:24;67.15;;;33.25;;
7108;SDS011;29079;41.930;25.558;2024-01-15T03:16:57;75.07;;;32.60;;
7108;SDS011;29079;41.930;25.558;2024-01-15T03:19:34;71.10;;;32.95;;
7108;SDS011;29079;41.930;25.558;2024-01-15T03:22:07;74.00;;;35.25;;
7108;SDS011;29079;41.930;25.558;2024-01-15T03:24:41;71.78;;;35.55;;
7108;SDS011;29079;41.930;25.558;2024-01-15T03:27:15;73.43;;;33.35;;
7108;SDS011;29079;41.930;25.558;2024-01-15T03:29:48;76.88;;;34.35;;
7108;SDS011;29079;41.930;25.558;2024-01-15T03:32:21;74.47;;;33.28;;
7108;SDS011;29079;41.930;25.558;2024-01-15T03:34:54;64.60;;;30.35;;
7108;SDS011;29079;41.930;25.558;2024-01-15T03:37:27;71.25;;;32.53;;
7108;SDS011;29079;41.930;25.558;2024-01-15T03:40:01;64.13;;;31.52;;
7108;SDS011;29079;41.930;25.558;2024-01-15T03:42:35;62.50;;;29.50;;
7108;SDS011;29079;41.930;25.558;2024-01-15T03:45:08;58.47;;;28.40;;
7108;SDS011;29079;41.930;25.558;2024-01-15T03:47:41;65.18;;;28.95;;
7108;SDS011;29079;41.930;25.558;2024-01-15T03:50:14;60.95;;;27.50;;
7108;SDS011;29079;41.930;25.558;2024-01-15T03:52:47;65.40;;;27.90;;
7108;SDS011;29079;41.930;25.558;2024-01-15T03:55:22;59.20;;;25.70;;
7108;SDS011;29079;41.930;25.558;2024-01-15T03:57:55;45.88;;;25.05;;
7108;SDS011;29079;41.930;25.558;2024-01-15T04:00:28;54.45;;;25.67;;
7108;SDS011;29079;41.930;25.558;2024-01-15T04:03:01;50.78;;;23.27;;
7108;SDS011;29079;41.930;25.558;2024-01-15T04:05:34;55.90;;;27.73;;
7108;SDS011;29079;41.930;25.558;2024-01-15T04:08:07;47.67;;;24.42;;
7108;SDS011;29079;41.930;25.558;2024-01-15T04:10:41;52.85;;;25.05;;
7108;SDS011;29079;41.930;25.558;2024-01-15T04:13:14;50.65;;;24.58;;
7108;SDS011;29079;41.930;25.558;2024-01-15T04:15:47;51.13;;;23.98;;
7108;SDS011;29079;41.930;25.558;2024-01-15T04:18:20;53.28;;;23.67;;
7108;SDS011;29079;41.930;25.558;2024-01-15T04:20:53;52.83;;;25.08;;
7108;SDS011;29079;41.930;25.558;2024-01-15T04:23:26;58.92;;;25.38;;
7108;SDS011;29079;41.930;25.558;2024-01-15T04:26:01;55.22;;;26.70;;
7108;SDS011;29079;41.930;25.558;2024-01-15T04:28:34;49.75;;;24.35;;
7108;SDS011;29079;41.930;25.558;2024-01-15T04:31:06;67.75;;;31.38;;
7108;SDS011;29079;41.930;25.558;2024-01-15T04:33:39;92.60;;;39.55;;
7108;SDS011;29079;41.930;25.558;2024-01-15T04:36:12;76.78;;;36.90;;
7108;SDS011;29079;41.930;25.558;2024-01-15T04:38:45;103.90;;;45.35;;
7108;SDS011;29079;41.930;25.558;2024-01-15T04:41:20;107.43;;;48.35;;
7108;SDS011;29079;41.930;25.558;2024-01-15T04:43:53;98.13;;;42.65;;
7108;SDS011;29079;41.930;25.558;2024-01-15T04:46:26;91.20;;;42.28;;
7108;SDS011;29079;41.930;25.558;2024-01-15T04:48:59;93.15;;;42.17;;
7108;SDS011;29079;41.930;25.558;2024-01-15T04:51:32;107.32;;;47.10;;
7108;SDS011;29079;41.930;25.558;2024-01-15T04:54:06;95.28;;;43.95;;
7108;SDS011;29079;41.930;25.558;2024-01-15T04:56:41;92.22;;;41.85;;
7108;SDS011;29079;41.930;25.558;2024-01-15T04:59:14;82.78;;;40.28;;
7108;SDS011;29079;41.930;25.558;2024-01-15T05:01:46;83.65;;;39.75;;
7108;SDS011;29079;41.930;25.558;2024-01-15T05:04:20;96.13;;;44.38;;
7108;SDS011;29079;41.930;25.558;2024-01-15T05:06:53;80.25;;;40.13;;
7108;SDS011;29079;41.930;25.558;2024-01-15T05:09:26;81.45;;;36.40;;
7108;SDS011;29079;41.930;25.558;2024-01-15T05:12:05;73.90;;;35.50;;
7108;SDS011;29079;41.930;25.558;2024-01-15T05:14:38;77.05;;;32.65;;
7108;SDS011;29079;41.930;25.558;2024-01-15T05:17:11;64.68;;;33.10;;
7108;SDS011;29079;41.930;25.558;2024-01-15T05:19:44;77.50;;;36.60;;
7108;SDS011;29079;41.930;25.558;2024-01-15T05:22:17;101.35;;;46.80;;
7108;SDS011;29079;41.930;25.558;2024-01-15T05:24:52;114.75;;;53.67;;
7108;SDS011;29079;41.930;25.558;2024-01-15T05:27:26;127.28;;;57.78;;
7108;SDS011;29079;41.930;25.558;2024-01-15T05:29:59;114.95;;;54.70;;
7108;SDS011;29079;41.930;25.558;2024-01-15T05:32:32;108.15;;;53.38;;
7108;SDS011;29079;41.930;25.558;2024-01-15T05:35:05;112.82;;;51.38;;
7108;SDS011;29079;41.930;25.558;2024-01-15T05:37:41;107.53;;;48.05;;
7108;SDS011;29079;41.930;25.558;2024-01-15T05:40:15;104.07;;;45.67;;
7108;SDS011;29079;41.930;25.558;2024-01-15T05:42:50;100.55;;;45.30;;
7108;SDS011;29079;41.930;25.558;2024-01-15T05:45:23;110.93;;;46.83;;
7108;SDS011;29079;41.930;25.558;2024-01-15T05:47:56;88.45;;;41.80;;
7108;SDS011;29079;41.930;25.558;2024-01-15T05:50:31;98.82;;;46.03;;
7108;SDS011;29079;41.930;25.558;2024-01-15T05:53:04;108.47;;;46.08;;
7108;SDS011;29079;41.930;25.558;2024-01-15T05:55:37;101.00;;;41.05;;
7108;SDS011;29079;41.930;25.558;2024-01-15T05:58:12;122.03;;;49.20;;
7108;SDS011;29079;41.930;25.558;2024-01-15T06:00:45;96.55;;;41.50;;
7108;SDS011;29079;41.930;25.558;2024-01-15T06:03:19;85.18;;;38.95;;
7108;SDS011;29079;41.930;25.558;2024-01-15T06:05:52;69.00;;;32.38;;
7108;SDS011;29079;41.930;25.558;2024-01-15T06:08:25;67.65;;;36.50;;
7108;SDS011;29079;41.930;25.558;2024-01-15T06:13:33;85.85;;;40.85;;
7108;SDS011;29079;41.930;25.558;2024-01-15T06:16:13;82.43;;;40.25;;
7108;SDS011;29079;41.930;25.558;2024-01-15T06:18:48;100.38;;;45.30;;
7108;SDS011;29079;41.930;25.558;2024-01-15T06:21:21;92.63;;;44.05;;
7108;SDS011;29079;41.930;25.558;2024-01-15T06:23:54;164.88;;;69.13;;
7108;SDS011;29079;41.930;25.558;2024-01-15T06:29:02;126.38;;;54.00;;
7108;SDS011;29079;41.930;25.558;2024-01-15T06:31:35;117.63;;;52.70;;
7108;SDS011;29079;41.930;25.558;2024-01-15T06:34:08;105.13;;;48.35;;
7108;SDS011;29079;41.930;25.558;2024-01-15T06:36:41;101.68;;;47.38;;
7108;SDS011;29079;41.930;25.558;2024-01-15T06:39:14;93.68;;;47.60;;
7108;SDS011;29079;41.930;25.558;2024-01-15T06:41:47;101.47;;;46.92;;
7108;SDS011;29079;41.930;25.558;2024-01-15T06:44:22;131.40;;;62.78;;
7108;SDS011;29079;41.930;25.558;2024-01-15T06:46:55;158.65;;;76.75;;
7108;SDS011;29079;41.930;25.558;2024-01-15T06:49:33;170.25;;;79.43;;
7108;SDS011;29079;41.930;25.558;2024-01-15T06:52:06;149.10;;;73.53;;
7108;SDS011;29079;41.930;25.558;2024-01-15T06:54:39;165.35;;;73.53;;
7108;SDS011;29079;41.930;25.558;2024-01-15T06:57:12;157.50;;;73.65;;
7108;SDS011;29079;41.930;25.558;2024-01-15T06:59:47;165.57;;;78.05;;
7108;SDS011;29079;41.930;25.558;2024-01-15T07:02:20;167.05;;;78.05;;
7108;SDS011;29079;41.930;25.558;2024-01-15T07:04:52;163.77;;;80.18;;
7108;SDS011;29079;41.930;25.558;2024-01-15T07:07:26;125.93;;;62.30;;
7108;SDS011;29079;41.930;25.558;2024-01-15T07:10:01;118.53;;;56.78;;
7108;SDS011;29079;41.930;25.558;2024-01-15T07:12:34;132.65;;;64.20;;
7108;SDS011;29079;41.930;25.558;2024-01-15T07:15:09;167.65;;;76.85;;
7108;SDS011;29079;41.930;25.558;2024-01-15T07:17:42;154.13;;;70.70;;
7108;SDS011;29079;41.930;25.558;2024-01-15T07:20:15;161.60;;;79.22;;
7108;SDS011;29079;41.930;25.558;2024-01-15T07:22:50;183.93;;;88.47;;
7108;SDS011;29079;41.930;25.558;2024-01-15T07:25:23;165.73;;;81.40;;
7108;SDS011;29079;41.930;25.558;2024-01-15T07:27:57;203.10;;;92.70;;
7108;SDS011;29079;41.930;25.558;2024-01-15T07:30:32;199.60;;;89.57;;
7108;SDS011;29079;41.930;25.558;2024-01-15T07:33:05;208.23;;;98.78;;
7108;SDS011;29079;41.930;25.558;2024-01-15T07:35:38;202.85;;;95.20;;
7108;SDS011;29079;41.930;25.558;2024-01-15T07:38:11;194.30;;;90.80;;
7108;SDS011;29079;41.930;25.558;2024-01-15T07:40:45;229.82;;;108.80;;
7108;SDS011;29079;41.930;25.558;2024-01-15T07:43:20;225.98;;;107.97;;
7108;SDS011;29079;41.930;25.558;2024-01-15T07:45:55;188.93;;;91.03;;
7108;SDS011;29079;41.930;25.558;2024-01-15T07:48:28;275.38;;;131.30;;
7108;SDS011;29079;41.930;25.558;2024-01-15T07:51:01;299.38;;;139.55;;
7108;SDS011;29079;41.930;25.558;2024-01-15T07:53:35;289.05;;;132.23;;
7108;SDS011;29079;41.930;25.558;2024-01-15T07:56:08;260.83;;;125.63;;
7108;SDS011;29079;41.930;25.558;2024-01-15T07:58:41;253.65;;;126.05;;
7108;SDS011;29079;41.930;25.558;2024-01-15T08:01:15;253.30;;;111.43;;
7108;SDS011;29079;41.930;25.558;2024-01-15T08:03:48;228.48;;;105.88;;
7108;SDS011;29079;41.930;25.558;2024-01-15T08:06:21;183.35;;;87.93;;
7108;SDS011;29079;41.930;25.558;2024-01-15T08:08:55;170.70;;;76.85;;
7108;SDS011;29079;41.930;25.558;2024-01-15T08:11:28;138.30;;;68.45;;
7108;SDS011;29079;41.930;25.558;2024-01-15T08:14:01;152.88;;;71.68;;
7108;SDS011;29079;41.930;25.558;2024-01-15T08:16:36;137.48;;;62.45;;
7108;SDS011;29079;41.930;25.558;2024-01-15T08:19:14;127.13;;;57.33;;
7108;SDS011;29079;41.930;25.558;2024-01-15T08:21:47;107.63;;;51.00;;
7108;SDS011;29079;41.930;25.558;2024-01-15T08:24:20;98.15;;;49.45;;
7108;SDS011;29079;41.930;25.558;2024-01-15T08:26:54;99.25;;;44.55;;
7108;SDS011;29079;41.930;25.558;2024-01-15T08:29:27;89.50;;;43.30;;
7108;SDS011;29079;41.930;25.558;2024-01-15T08:32:05;104.75;;;50.22;;
7108;SDS011;29079;41.930;25.558;2024-01-15T08:34:39;101.55;;;46.83;;
7108;SDS011;29079;41.930;25.558;2024-01-15T08:37:12;107.38;;;48.70;;
7108;SDS011;29079;41.930;25.558;2024-01-15T08:39:45;104.63;;;49.42;;
7108;SDS011;29079;41.930;25.558;2024-01-15T08:42:21;100.85;;;45.38;;
7108;SDS011;29079;41.930;25.558;2024-01-15T08:44:54;104.65;;;50.60;;
7108;SDS011;29079;41.930;25.558;2024-01-15T08:47:29;105.38;;;48.70;;
7108;SDS011;29079;41.930;25.558;2024-01-15T08:50:02;103.28;;;49.05;;
7108;SDS011;29079;41.930;25.558;2024-01-15T08:52:36;96.45;;;43.85;;
7108;SDS011;29079;41.930;25.558;2024-01-15T08:55:09;74.10;;;37.38;;
7108;SDS011;29079;41.930;25.558;2024-01-15T08:57:44;89.57;;;43.88;;
7108;SDS011;29079;41.930;25.558;2024-01-15T09:00:17;78.50;;;39.55;;
7108;SDS011;29079;41.930;25.558;2024-01-15T09:02:52;82.68;;;40.83;;
7108;SDS011;29079;41.930;25.558;2024-01-15T09:05:25;72.70;;;35.92;;
7108;SDS011;29079;41.930;25.558;2024-01-15T09:07:59;73.03;;;36.40;;
7108;SDS011;29079;41.930;25.558;2024-01-15T09:10:32;77.68;;;38.45;;
7108;SDS011;29079;41.930;25.558;2024-01-15T09:13:05;74.07;;;36.40;;
7108;SDS011;29079;41.930;25.558;2024-01-15T09:15:37;63.37;;;34.83;;
7108;SDS011;29079;41.930;25.558;2024-01-15T09:18:12;69.03;;;36.63;;
7108;SDS011;29079;41.930;25.558;2024-01-15T09:20:45;84.43;;;38.13;;
7108;SDS011;29079;41.930;25.558;2024-01-15T09:23:18;87.68;;;42.53;;
7108;SDS011;29079;41.930;25.558;2024-01-15T09:25:51;92.05;;;41.45;;
7108;SDS011;29079;41.930;25.558;2024-01-15T09:28:24;103.43;;;42.53;;
7108;SDS011;29079;41.930;25.558;2024-01-15T09:30:57;87.63;;;40.42;;
7108;SDS011;29079;41.930;25.558;2024-01-15T09:33:31;87.15;;;42.08;;
7108;SDS011;29079;41.930;25.558;2024-01-15T09:36:05;80.95;;;39.50;;
7108;SDS011;29079;41.930;25.558;2024-01-15T09:38:40;83.00;;;39.85;;
7108;SDS011;29079;41.930;25.558;2024-01-15T09:41:13;90.82;;;42.05;;
7108;SDS011;29079;41.930;25.558;2024-01-15T09:43:46;91.90;;;40.70;;
7108;SDS011;29079;41.930;25.558;2024-01-15T09:48:54;84.10;;;39.10;;
7108;SDS011;29079;41.930;25.558;2024-01-15T09:51:28;83.25;;;40.38;;
7108;SDS011;29079;41.930;25.558;2024-01-15T09:54:04;81.20;;;39.35;;
7108;SDS011;29079;41.930;25.558;2024-01-15T09:56:37;76.43;;;38.33;;
7108;SDS011;29079;41.930;25.558;2024-01-15T09:59:10;67.25;;;34.85;;
7108;SDS011;29079;41.930;25.558;2024-01-15T10:01:44;64.93;;;33.45;;
7108;SDS011;29079;41.930;25.558;2024-01-15T10:04:20;69.28;;;32.00;;
7108;SDS011;29079;41.930;25.558;2024-01-15T10:06:55;71.93;;;33.55;;
7108;SDS011;29079;41.930;25.558;2024-01-15T10:09:30;70.03;;;33.53;;
7108;SDS011;29079;41.930;25.558;2024-01-15T10:12:04;60.70;;;31.50;;
7108;SDS011;29079;41.930;25.558;2024-01-15T10:14:37;75.68;;;33.30;;
7108;SDS011;29079;41.930;25.558;2024-01-15T10:17:14;65.03;;;31.65;;
7108;SDS011;29079;41.930;25.558;2024-01-15T10:19:49;65.30;;;33.30;;
7108;SDS011;29079;41.930;25.558;2024-01-15T10:22:22;71.60;;;33.58;;
7108;SDS011;29079;41.930;25.558;2024-01-15T10:24:55;71.43;;;33.30;;
7108;SDS011;29079;41.930;25.558;2024-01-15T10:27:30;71.03;;;31.33;;
7108;SDS011;29079;41.930;25.558;2024-01-15T10:30:03;69.60;;;32.75;;
7108;SDS011;29079;41.930;25.558;2024-01-15T10:32:37;63.60;;;31.45;;
7108;SDS011;29079;41.930;25.558;2024-01-15T10:35:11;67.80;;;34.85;;
7108;SDS011;29079;41.930;25.558;2024-01-15T10:37:44;81.75;;;33.90;;
7108;SDS011;29079;41.930;25.558;2024-01-15T10:40:19;62.85;;;32.85;;
7108;SDS011;29079;41.930;25.558;2024-01-15T10:42:52;73.07;;;33.80;;
7108;SDS011;29079;41.930;25.558;2024-01-15T10:45:26;78.50;;;34.90;;
7108;SDS011;29079;41.930;25.558;2024-01-15T10:47:59;77.70;;;37.85;;
7108;SDS011;29079;41.930;25.558;2024-01-15T10:50:35;78.85;;;34.90;;
7108;SDS011;29079;41.930;25.558;2024-01-15T10:53:09;65.75;;;31.95;;
7108;SDS011;29079;41.930;25.558;2024-01-15T10:55:43;59.65;;;30.25;;
7108;SDS011;29079;41.930;25.558;2024-01-15T10:58:20;67.82;;;35.83;;
7108;SDS011;29079;41.930;25.558;2024-01-15T11:00:54;74.93;;;35.75;;
7108;SDS011;29079;41.930;25.558;2024-01-15T11:03:28;75.72;;;37.60;;
7108;SDS011;29079;41.930;25.558;2024-01-15T11:06:03;73.00;;;37.03;;
7108;SDS011;29079;41.930;25.558;2024-01-15T11:08:50;78.07;;;42.00;;
7108;SDS011;29079;41.930;25.558;2024-01-15T11:11:24;86.47;;;42.10;;
7108;SDS011;29079;41.930;25.558;2024-01-15T11:13:58;88.90;;;42.60;;
7108;SDS011;29079;41.930;25.558;2024-01-15T11:19:32;78.30;;;38.25;;
7108;SDS011;29079;41.930;25.558;2024-01-15T11:22:11;88.50;;;43.67;;
7108;SDS011;29079;41.930;25.558;2024-01-15T11:25:21;108.18;;;46.97;;
7108;SDS011;29079;41.930;25.558;2024-01-15T11:27:54;86.25;;;43.90;;
7108;SDS011;29079;41.930;25.558;2024-01-15T11:30:28;91.88;;;45.58;;
7108;SDS011;29079;41.930;25.558;2024-01-15T11:33:01;77.50;;;37.83;;
7108;SDS011;29079;41.930;25.558;2024-01-15T11:35:48;96.30;;;42.28;;
7108;SDS011;29079;41.930;25.558;2024-01-15T11:38:29;62.83;;;32.50;;
7108;SDS011;29079;41.930;25.558;2024-01-15T11:41:02;63.33;;;29.80;;
7108;SDS011;29079;41.930;25.558;2024-01-15T11:43:47;66.68;;;31.95;;
7108;SDS011;29079;41.930;25.558;2024-01-15T11:46:20;56.92;;;26.95;;
7108;SDS011;29079;41.930;25.558;2024-01-15T11:48:53;52.40;;;27.23;;
7108;SDS011;29079;41.930;25.558;2024-01-15T11:51:36;74.05;;;35.35;;
7108;SDS011;29079;41.930;25.558;2024-01-15T11:54:11;95.72;;;46.60;;
7108;SDS011;29079;41.930;25.558;2024-01-15T11:56:47;60.67;;;31.33;;
7108;SDS011;29079;41.930;25.558;2024-01-15T11:59:21;56.05;;;29.00;;
7108;SDS011;29079;41.930;25.558;2024-01-15T12:01:54;63.50;;;28.33;;
7108;SDS011;29079;41.930;25.558;2024-01-15T12:07:01;51.65;;;26.50;;
7108;SDS011;29079;41.930;25.558;2024-01-15T12:09:36;52.60;;;29.00;;
7108;SDS011;29079;41.930;25.558;2024-01-15T12:12:22;56.25;;;27.05;;
7108;SDS011;29079;41.930;25.558;2024-01-15T12:15:00;54.47;;;26.90;;
7108;SDS011;29079;41.930;25.558;2024-01-15T12:17:34;56.47;;;29.58;;
7108;SDS011;29079;41.930;25.558;2024-01-15T12:20:22;54.90;;;29.50;;
7108;SDS011;29079;41.930;25.558;2024-01-15T12:23:11;50.42;;;28.15;;
7108;SDS011;29079;41.930;25.558;2024-01-15T12:26:01;60.78;;;31.20;;
7108;SDS011;29079;41.930;25.558;2024-01-15T12:28:50;58.50;;;29.98;;
7108;SDS011;29079;41.930;25.558;2024-01-15T12:31:42;63.92;;;28.25;;
7108;SDS011;29079;41.930;25.558;2024-01-15T12:34:30;52.38;;;26.25;;
7108;SDS011;29079;41.930;25.558;2024-01-15T12:37:19;64.43;;;28.08;;
7108;SDS011;29079;41.930;25.558;2024-01-15T12:40:07;54.78;;;27.67;;
7108;SDS011;29079;41.930;25.558;2024-01-15T12:42:58;115.72;;;44.85;;
7108;SDS011;29079;41.930;25.558;2024-01-15T12:45:47;137.05;;;55.05;;
7108;SDS011;29079;41.930;25.558;2024-01-15T12:48:35;94.43;;;39.25;;
7108;SDS011;29079;41.930;25.558;2024-01-15T12:51:24;88.60;;;37.85;;
7108;SDS011;29079;41.930;25.558;2024-01-15T12:54:13;87.60;;;37.47;;
7108;SDS011;29079;41.930;25.558;2024-01-15T12:57:01;80.47;;;34.75;;
7108;SDS011;29079;41.930;25.558;2024-01-15T12:59:50;60.45;;;31.58;;
7108;SDS011;29079;41.930;25.558;2024-01-15T13:02:38;61.55;;;30.48;;
7108;SDS011;29079;41.930;25.558;2024-01-15T13:05:28;63.60;;;32.53;;
7108;SDS011;29079;41.930;25.558;2024-01-15T13:08:19;65.47;;;33.33;;
7108;SDS011;29079;41.930;25.558;2024-01-15T13:11:08;70.88;;;32.80;;
7108;SDS011;29079;41.930;25.558;2024-01-15T13:13:56;54.85;;;27.33;;
7108;SDS011;29079;41.930;25.558;2024-01-15T13:16:46;55.80;;;28.38;;
7108;SDS011;29079;41.930;25.558;2024-01-15T13:19:34;64.05;;;31.35;;
7108;SDS011;29079;41.930;25.558;2024-01-15T13:22:22;68.75;;;36.15;;
7108;SDS011;29079;41.930;25.558;2024-01-15T13:25:15;205.18;;;59.88;;
7108;SDS011;29079;41.930;25.558;2024-01-15T13:28:04;640.90;;;188.85;;
7108;SDS011;29079;41.930;25.558;2024-01-15T13:30:52;232.82;;;73.45;;
7108;SDS011;29079;41.930;25.558;2024-01-15T13:33:42;127.75;;;46.17;;
7108;SDS011;29079;41.930;25.558;2024-01-15T13:36:33;85.50;;;37.42;;
7108;SDS011;29079;41.930;25.558;2024-01-15T13:39:21;75.68;;;36.00;;
7108;SDS011;29079;41.930;25.558;2024-01-15T13:42:09;62.83;;;32.67;;
7108;SDS011;29079;41.930;25.558;2024-01-15T13:44:58;81.28;;;36.03;;
7108;SDS011;29079;41.930;25.558;2024-01-15T13:47:46;89.15;;;37.58;;
7108;SDS011;29079;41.930;25.558;2024-01-15T13:50:35;74.28;;;37.92;;
7108;SDS011;29079;41.930;25.558;2024-01-15T13:53:24;75.70;;;38.35;;
7108;SDS011;29079;41.930;25.558;2024-01-15T13:56:13;83.55;;;39.60;;
7108;SDS011;29079;41.930;25.558;2024-01-15T13:59:03;86.50;;;37.33;;
7108;SDS011;29079;41.930;25.558;2024-01-15T14:01:51;79.65;;;39.33;;
7108;SDS011;29079;41.930;25.558;2024-01-15T14:04:39;78.22;;;34.55;;
7108;SDS011;29079;41.930;25.558;2024-01-15T14:07:31;72.32;;;32.72;;
7108;SDS011;29079;41.930;25.558;2024-01-15T14:10:19;71.30;;;34.85;;
7108;SDS011;29079;41.930;25.558;2024-01-15T14:13:07;73.97;;;36.60;;
7108;SDS011;29079;41.930;25.558;2024-01-15T14:15:55;74.70;;;34.72;;
7108;SDS011;29079;41.930;25.558;2024-01-15T14:18:43;85.65;;;37.10;;
7108;SDS011;29079;41.930;25.558;2024-01-15T14:21:31;83.28;;;39.75;;
7108;SDS011;29079;41.930;25.558;2024-01-15T14:24:20;81.20;;;41.92;;
7108;SDS011;29079;41.930;25.558;2024-01-15T14:27:08;84.43;;;42.10;;
7108;SDS011;29079;41.930;25.558;2024-01-15T14:29:56;83.18;;;40.85;;
7108;SDS011;29079;41.930;25.558;2024-01-15T14:32:44;74.90;;;38.75;;
7108;SDS011;29079;41.930;25.558;2024-01-15T14:35:32;98.88;;;50.75;;
7108;SDS011;29079;41.930;25.558;2024-01-15T14:38:20;99.28;;;45.38;;
7108;SDS011;29079;41.930;25.558;2024-01-15T14:41:10;112.38;;;51.47;;
7108;SDS011;29079;41.930;25.558;2024-01-15T14:43:59;121.32;;;56.17;;
7108;SDS011;29079;41.930;25.558;2024-01-15T14:46:47;100.20;;;47.15;;
7108;SDS011;29079;41.930;25.558;2024-01-15T14:49:36;108.45;;;52.50;;
7108;SDS011;29079;41.930;25.558;2024-01-15T14:52:24;141.75;;;69.47;;
7108;SDS011;29079;41.930;25.558;2024-01-15T14:55:12;115.57;;;52.92;;
7108;SDS011;29079;41.930;25.558;2024-01-15T14:58:02;127.85;;;59.70;;
7108;SDS011;29079;41.930;25.558;2024-01-15T15:00:51;113.75;;;52.05;;
7108;SDS011;29079;41.930;25.558;2024-01-15T15:03:39;106.18;;;48.50;;
7108;SDS011;29079;41.930;25.558;2024-01-15T15:06:27;90.10;;;44.60;;
7108;SDS011;29079;41.930;25.558;2024-01-15T15:09:16;97.63;;;45.80;;
7108;SDS011;29079;41.930;25.558;2024-01-15T15:12:04;82.25;;;42.53;;
7108;SDS011;29079;41.930;25.558;2024-01-15T15:14:54;80.43;;;39.17;;
7108;SDS011;29079;41.930;25.558;2024-01-15T15:17:54;66.93;;;35.85;;
7108;SDS011;29079;41.930;25.558;2024-01-15T15:20:42;73.05;;;34.28;;
7108;SDS011;29079;41.930;25.558;2024-01-15T15:23:30;69.28;;;33.13;;
7108;SDS011;29079;41.930;25.558;2024-01-15T15:26:18;70.18;;;34.83;;
7108;SDS011;29079;41.930;25.558;2024-01-15T15:29:06;65.65;;;34.05;;
7108;SDS011;29079;41.930;25.558;2024-01-15T15:31:55;72.07;;;37.00;;